DK-0030 weather

Public forecast

Using degrees Celsius for public forecast. Weather courtesy of forecast.io.

Closest aviation weather report (METAR) to Holsted Flyveplads (private)

Closest report is Billund Airport, 13.0 nm (24.0 km) NE. Retrieved 2020/08/10 14:50 UTC (15 minutes ago):

EKBI 101450Z AUTO 09005KT 060V130 9999 NCD 29/14 Q1020

Closest aviation forecast (TAF) to Holsted Flyveplads (private)

Closest forecast is Billund Airport, 13.0 nm (24.0 km) NE. Retrieved 2020/08/10 12:30 UTC (3 hours ago):

TAF EKBI 101114Z 1012/1112 08008KT CAVOK